Denver International Airport
KDEN : now visible

Airfield :











YOU CAN JOIN US ON...

 
LOGIN :

Register | Disclaimer

   EN    FR    IT 

 









Legend :    VFR   Marginal VFR   IFR   Intensive IFR   Very Intensive IFR
Visi :
Ceiling :
>= 8 km
>= 3000ft
5 to 8 km
1000 to 3000 ft
1500m to 5 km
500 to 1000 ft
800 to 1500m
200 to 500 ft
< 800m
< 200 ft
Symbols :   Thunderstorms  Fog  Heavy snow  Heavy precipitations  Wind > 20 kt







- Airport Elevation : 5431 ft
- IATA code : DEN


KDEN - Denver International

CURRENT METAR :
  • 160553Z 17010KT 10SM SCT220 19/06 A3001 RMK AO2 SLP075 T01940056 10294 20183 58010

EXPIRED METARs :
  • 160453Z 17012KT 10SM FEW130 BKN200 20/05 A3002 RMK AO2 SLP084 T02000050
  • 160353Z 17011KT 10SM FEW130 SCT220 19/02 A3004 RMK AO2 SLP096 T01940017

TAF KDEN
Valid from the 16 at 06:00 until the 17 at 12:00 UTC


160520Z 1606/1712 20010KT P6SM BKN180
FM161400 25007KT P6SM BKN160
FM161600 02006KT P6SM SCT100 BKN140
FM170200 20008KT P6SM SCT100 BKN140
No reported NOTAMs for that airfield.



MET'MAP, your aeronautical weather chart ! - Copyright ORBIFLY December 2007 - Disclaimer

ORBIFLY MET'MAP TEAM :

Programming & Development : Alexandra Zaïnal
Concept & Development : Baudouin d'Aumeries
Co-Development & Prog : Marc-Olivier Méhu
Technical & hardware support : Manuel Goepfert

Contact : metmap@orbifly.com




SOURCES & CREDITS :

   NOAA       Earth
Advisory